createdAt,value
2018-06-08T00:01:21.007Z,33.67
2018-06-08T00:03:55.632Z,31.93
2018-06-08T00:06:30.361Z,34.60
2018-06-08T00:09:08.256Z,28.50
2018-06-08T00:11:42.788Z,33.00
2018-06-08T00:14:17.738Z,30.70
2018-06-08T00:16:53.191Z,36.67
2018-06-08T00:19:28.235Z,28.13
2018-06-08T00:22:02.709Z,31.87
2018-06-08T00:24:37.393Z,32.63
2018-06-08T00:27:11.976Z,41.30
2018-06-08T00:29:47.125Z,37.70
2018-06-08T00:32:21.445Z,47.30
2018-06-08T00:34:56.312Z,42.90
2018-06-08T00:37:30.857Z,33.87
2018-06-08T00:40:06.167Z,33.73
2018-06-08T00:42:40.793Z,36.40
2018-06-08T00:45:15.311Z,35.53
2018-06-08T00:47:50.576Z,34.97
2018-06-08T00:50:24.971Z,32.57
2018-06-08T00:52:59.965Z,34.13
2018-06-08T00:55:34.503Z,46.07
2018-06-08T00:58:09.149Z,33.53
2018-06-08T01:00:43.757Z,34.30
2018-06-08T01:03:18.486Z,38.43
2018-06-08T01:05:53.262Z,43.73
2018-06-08T01:08:27.901Z,37.30
2018-06-08T01:11:02.726Z,39.67
2018-06-08T01:13:37.667Z,41.63
2018-06-08T01:16:12.136Z,37.90
2018-06-08T01:18:47.159Z,35.57
2018-06-08T01:21:22.028Z,31.57
2018-06-08T01:23:56.868Z,45.37
2018-06-08T01:26:31.701Z,46.87
2018-06-08T01:29:06.155Z,47.37
2018-06-08T01:31:40.833Z,34.57
2018-06-08T01:34:15.494Z,43.20
2018-06-08T01:36:50.164Z,42.47
2018-06-08T01:39:24.937Z,44.97
2018-06-08T01:41:59.923Z,45.60
2018-06-08T01:44:34.589Z,43.97
2018-06-08T01:47:09.435Z,48.20
2018-06-08T01:49:44.191Z,43.60
2018-06-08T01:52:19.014Z,53.23
2018-06-08T01:54:53.790Z,44.17
2018-06-08T01:57:28.235Z,46.07
2018-06-08T02:00:03.065Z,40.03
2018-06-08T02:02:37.694Z,52.70
2018-06-08T02:05:12.460Z,43.70
2018-06-08T02:07:47.345Z,42.07
2018-06-08T02:10:22.256Z,52.77
2018-06-08T02:12:56.876Z,41.40
2018-06-08T02:15:31.791Z,41.73
2018-06-08T02:18:06.575Z,44.17
2018-06-08T02:20:42.134Z,51.73
2018-06-08T02:23:16.819Z,35.93
2018-06-08T02:25:51.643Z,50.50
2018-06-08T02:28:26.584Z,42.93
2018-06-08T02:31:01.353Z,49.07
2018-06-08T02:33:36.175Z,45.87
2018-06-08T02:36:10.821Z,36.80
2018-06-08T02:38:45.757Z,52.10
2018-06-08T02:41:20.321Z,47.17
2018-06-08T02:43:55.392Z,41.20
2018-06-08T02:46:29.655Z,41.53
2018-06-08T02:49:04.610Z,45.17
2018-06-08T02:51:39.185Z,47.77
2018-06-08T02:54:13.883Z,43.87
2018-06-08T02:56:48.955Z,45.30
2018-06-08T02:59:23.388Z,54.20
2018-06-08T03:01:58.099Z,60.70
2018-06-08T03:04:32.816Z,38.67
2018-06-08T03:07:07.446Z,46.47
2018-06-08T03:09:42.112Z,36.10
2018-06-08T03:12:17.013Z,42.00
2018-06-08T03:14:51.427Z,44.17
2018-06-08T03:17:26.075Z,49.47
2018-06-08T03:20:00.681Z,43.60
2018-06-08T03:22:34.922Z,40.40
2018-06-08T03:25:09.702Z,43.33
2018-06-08T03:27:44.606Z,45.30
2018-06-08T03:30:19.489Z,33.60
2018-06-08T03:32:54.154Z,41.80
2018-06-08T03:35:28.820Z,35.63
2018-06-08T03:38:03.940Z,39.03
2018-06-08T03:40:38.173Z,35.67
2018-06-08T03:43:13.253Z,35.20
2018-06-08T03:45:48.049Z,35.40
2018-06-08T03:48:22.726Z,32.40
2018-06-08T03:50:57.477Z,26.67
2018-06-08T03:53:32.274Z,25.60
2018-06-08T03:56:06.977Z,34.40
2018-06-08T03:58:41.599Z,31.80
2018-06-08T04:01:16.333Z,30.60
2018-06-08T04:03:51.053Z,30.60
2018-06-08T04:06:25.926Z,28.67
2018-06-08T04:09:00.684Z,32.93
2018-06-08T04:11:35.552Z,31.27
2018-06-08T04:14:10.208Z,26.60
2018-06-08T04:16:45.256Z,22.27
2018-06-08T04:19:19.596Z,27.20
2018-06-08T04:21:54.330Z,21.90
2018-06-08T04:24:29.225Z,27.27
2018-06-08T04:27:03.896Z,18.73
2018-06-08T04:29:38.561Z,27.53
2018-06-08T04:32:20.218Z,25.10
2018-06-08T04:34:55.136Z,22.73
2018-06-08T04:37:30.169Z,33.60
2018-06-08T04:40:04.708Z,28.20
2018-06-08T04:42:39.829Z,35.13
2018-06-08T04:45:14.651Z,27.80
2018-06-08T04:47:48.902Z,41.53
2018-06-08T04:50:23.681Z,29.80
2018-06-08T04:52:58.584Z,36.10
2018-06-08T04:55:33.292Z,34.10
2018-06-08T04:58:08.006Z,29.15
2018-06-08T05:00:42.680Z,37.40
2018-06-08T05:03:17.029Z,32.10
2018-06-08T05:05:51.683Z,35.47
2018-06-08T05:08:26.286Z,43.60
2018-06-08T05:11:01.023Z,34.50
2018-06-08T05:13:35.620Z,39.63
2018-06-08T05:16:10.337Z,36.70
2018-06-08T05:18:45.505Z,47.80
2018-06-08T05:21:19.922Z,42.70
2018-06-08T05:23:54.973Z,35.20
2018-06-08T05:26:30.035Z,27.23
2018-06-08T05:29:04.221Z,22.90
2018-06-08T05:31:38.938Z,24.27
2018-06-08T05:34:13.606Z,20.07
2018-06-08T05:36:49.092Z,19.00
2018-06-08T05:39:24.532Z,20.10
2018-06-08T05:41:59.394Z,18.13
2018-06-08T05:44:33.685Z,24.83
2018-06-08T05:47:08.714Z,30.23
2018-06-08T05:49:43.926Z,22.40
2018-06-08T05:52:18.601Z,20.50
2018-06-08T05:54:53.243Z,25.10
2018-06-08T05:57:28.288Z,19.47
2018-06-08T06:00:03.634Z,20.00
2018-06-08T06:02:37.743Z,20.00
2018-06-08T06:05:12.721Z,21.97
2018-06-08T06:07:47.550Z,25.47
2018-06-08T06:10:21.783Z,19.80
2018-06-08T06:12:56.596Z,22.37
2018-06-08T06:15:31.390Z,23.50
2018-06-08T06:18:05.893Z,20.10
2018-06-08T06:20:40.401Z,18.00
2018-06-08T06:23:15.101Z,16.63
2018-06-08T06:25:49.824Z,17.97
2018-06-08T06:28:24.527Z,21.07
2018-06-08T06:30:58.795Z,17.43
2018-06-08T06:33:33.644Z,19.07
2018-06-08T06:36:08.038Z,24.33
2018-06-08T06:38:42.819Z,21.70
2018-06-08T06:41:17.472Z,22.13
2018-06-08T06:43:52.187Z,18.27
2018-06-08T06:46:26.584Z,18.40
2018-06-08T06:49:02.071Z,18.03
2018-06-08T06:51:37.009Z,26.23
2018-06-08T06:54:11.950Z,28.47
2018-06-08T06:56:46.561Z,20.60
2018-06-08T06:59:21.127Z,22.50
2018-06-08T07:01:55.834Z,20.80
2018-06-08T07:04:30.389Z,23.57
2018-06-08T07:07:05.185Z,22.20
2018-06-08T07:09:39.490Z,23.67
2018-06-08T07:12:14.193Z,23.93
2018-06-08T07:14:49.167Z,19.33
2018-06-08T07:17:24.203Z,16.80
2018-06-08T07:19:59.045Z,16.40
2018-06-08T07:22:33.641Z,22.10
2018-06-08T07:25:08.632Z,22.30
2018-06-08T07:27:42.949Z,24.33
2018-06-08T07:30:17.871Z,21.67
2018-06-08T07:32:52.499Z,25.50
2018-06-08T07:35:27.671Z,20.20
2018-06-08T07:38:01.883Z,28.37
2018-06-08T07:40:36.617Z,30.07
2018-06-08T07:43:11.152Z,21.43
2018-06-08T07:45:45.895Z,21.03
2018-06-08T07:48:20.117Z,23.27
2018-06-08T07:50:54.808Z,25.40
2018-06-08T07:53:29.524Z,29.63
2018-06-08T07:56:04.371Z,28.27
2018-06-08T07:58:38.839Z,28.70
2018-06-08T08:01:13.465Z,22.40
2018-06-08T08:03:47.715Z,27.20
2018-06-08T08:06:22.446Z,26.40
2018-06-08T08:08:56.962Z,27.77
2018-06-08T08:11:31.553Z,25.17
2018-06-08T08:14:06.056Z,21.70
2018-06-08T08:16:40.553Z,35.50
2018-06-08T08:19:15.268Z,27.37
2018-06-08T08:21:49.860Z,28.73
2018-06-08T08:24:25.262Z,28.00
2018-06-08T08:26:59.662Z,27.73
2018-06-08T08:29:34.299Z,29.60
2018-06-08T08:32:09.184Z,29.10
2018-06-08T08:34:44.175Z,24.97
2018-06-08T08:37:18.882Z,19.77
2018-06-08T08:39:53.823Z,25.80
2018-06-08T08:42:27.997Z,25.90
2018-06-08T08:45:03.302Z,20.83
2018-06-08T08:47:37.502Z,21.87
2018-06-08T08:50:12.166Z,28.80
2018-06-08T08:52:46.855Z,31.47
2018-06-08T08:55:21.595Z,22.33
2018-06-08T08:57:56.409Z,18.43
2018-06-08T09:00:31.605Z,20.37
2018-06-08T09:03:06.057Z,22.63
2018-06-08T09:05:40.752Z,18.60
2018-06-08T09:08:15.426Z,16.73
2018-06-08T09:10:50.030Z,18.80
2018-06-08T09:13:25.073Z,20.50
2018-06-08T09:15:59.281Z,19.57
2018-06-08T09:18:33.979Z,17.27
2018-06-08T09:21:08.825Z,18.40
2018-06-08T09:23:43.373Z,24.10
2018-06-08T09:26:18.559Z,18.20
2018-06-08T09:28:52.902Z,12.80
2018-06-08T09:31:27.734Z,20.57
2018-06-08T09:34:02.215Z,18.47
2018-06-08T09:36:36.850Z,22.57
2018-06-08T09:39:11.630Z,23.60
2018-06-08T09:41:46.830Z,22.70
2018-06-08T09:44:21.368Z,27.20
2018-06-08T09:46:56.002Z,19.27
2018-06-08T09:49:30.602Z,15.50
2018-06-08T09:52:05.290Z,14.73
2018-06-08T09:54:40.632Z,12.07
2018-06-08T09:57:15.555Z,12.30
2018-06-08T09:59:50.342Z,17.03
2018-06-08T10:02:24.994Z,8.27
2018-06-08T10:04:59.771Z,8.97
2018-06-08T10:07:34.474Z,7.97
2018-06-08T10:10:09.121Z,9.33
2018-06-08T10:12:43.996Z,10.70
2018-06-08T10:15:18.439Z,8.77
2018-06-08T10:17:53.242Z,7.73
2018-06-08T10:20:28.087Z,9.93
2018-06-08T10:23:03.794Z,6.97
2018-06-08T10:25:38.438Z,13.50
2018-06-08T10:28:13.438Z,9.97
2018-06-08T10:30:47.945Z,20.10
2018-06-08T10:33:22.692Z,16.27
2018-06-08T10:35:57.400Z,12.80
2018-06-08T10:38:32.150Z,15.20
2018-06-08T10:41:07.420Z,12.93
2018-06-08T10:43:41.775Z,13.03
2018-06-08T10:46:16.220Z,24.23
2018-06-08T10:48:51.746Z,13.17
2018-06-08T10:51:26.102Z,19.47
2018-06-08T10:54:01.058Z,14.13
2018-06-08T10:56:35.775Z,13.50
2018-06-08T10:59:10.393Z,20.53
2018-06-08T11:01:44.989Z,18.63
2018-06-08T11:04:19.396Z,18.40
2018-06-08T11:06:54.081Z,16.57
2018-06-08T11:09:28.577Z,22.50
2018-06-08T11:12:03.241Z,17.37
2018-06-08T11:14:37.889Z,19.10
2018-06-08T11:17:12.626Z,20.80
2018-06-08T11:19:47.291Z,23.33
2018-06-08T11:22:21.909Z,28.40
2018-06-08T11:24:57.025Z,13.70
2018-06-08T11:27:31.793Z,21.03
2018-06-08T11:30:06.527Z,21.67
2018-06-08T11:32:41.427Z,12.90
2018-06-08T11:35:15.977Z,15.67
2018-06-08T11:37:50.671Z,14.77
2018-06-08T11:40:25.330Z,18.07
2018-06-08T11:43:00.184Z,17.10
2018-06-08T11:45:34.899Z,16.13
2018-06-08T11:48:09.838Z,16.83
2018-06-08T11:50:44.255Z,17.17
2018-06-08T11:53:19.144Z,13.60
2018-06-08T11:55:54.027Z,13.87
2018-06-08T11:58:30.001Z,18.40
2018-06-08T12:01:05.636Z,14.20
2018-06-08T12:03:40.668Z,13.70
2018-06-08T12:06:15.104Z,11.00
2018-06-08T12:08:49.774Z,11.93
2018-06-08T12:11:24.353Z,19.40
2018-06-08T12:13:58.970Z,14.90
2018-06-08T12:16:33.783Z,12.70
2018-06-08T12:19:08.458Z,13.90
2018-06-08T12:21:43.272Z,12.03
2018-06-08T12:24:17.676Z,10.13
2018-06-08T12:26:52.399Z,10.93
2018-06-08T12:29:27.070Z,15.20
2018-06-08T12:32:01.676Z,13.47
2018-06-08T12:34:36.322Z,9.30
2018-06-08T12:37:10.890Z,9.13
2018-06-08T12:39:45.719Z,11.40
2018-06-08T12:42:20.254Z,11.30
2018-06-08T12:44:54.996Z,21.80
2018-06-08T12:47:29.680Z,13.17
2018-06-08T12:50:04.366Z,8.17
2018-06-08T12:52:38.991Z,12.30
2018-06-08T12:55:13.788Z,7.50
2018-06-08T12:57:48.339Z,11.07
2018-06-08T13:00:23.135Z,10.70
2018-06-08T13:02:57.721Z,7.20
2018-06-08T13:05:32.746Z,9.80
2018-06-08T13:08:07.090Z,9.70
2018-06-08T13:10:42.258Z,8.77
2018-06-08T13:13:17.347Z,12.63
2018-06-08T13:15:52.155Z,25.03
2018-06-08T13:18:27.458Z,10.43
2018-06-08T13:21:02.599Z,8.83
2018-06-08T13:23:37.337Z,7.20
2018-06-08T13:26:11.853Z,6.40
2018-06-08T13:28:46.649Z,10.47
2018-06-08T13:31:21.302Z,9.43
2018-06-08T13:33:55.814Z,7.10
2018-06-08T13:36:30.704Z,7.67
2018-06-08T13:39:06.948Z,7.83
2018-06-08T13:41:41.094Z,8.73
2018-06-08T13:44:15.741Z,8.50
2018-06-08T13:46:50.610Z,8.67
2018-06-08T13:49:25.307Z,10.70
2018-06-08T13:52:00.185Z,7.50
2018-06-08T13:54:34.389Z,10.43
2018-06-08T13:57:09.094Z,6.97
2018-06-08T13:59:44.077Z,14.50
2018-06-08T14:02:18.670Z,10.40
2018-06-08T14:04:53.594Z,10.90
2018-06-08T14:07:28.106Z,7.57
2018-06-08T14:10:02.587Z,10.80
2018-06-08T14:12:37.197Z,8.03
2018-06-08T14:15:11.951Z,10.27
2018-06-08T14:17:46.633Z,8.20
2018-06-08T14:20:21.522Z,9.53
2018-06-08T14:22:56.190Z,8.00
2018-06-08T14:25:31.758Z,7.37
2018-06-08T14:28:06.423Z,7.27
2018-06-08T14:30:41.032Z,9.90
2018-06-08T14:33:15.697Z,9.20
2018-06-08T14:35:50.665Z,9.70
2018-06-08T14:38:25.080Z,7.33
2018-06-08T14:40:59.839Z,8.90
2018-06-08T14:43:34.505Z,7.80
2018-06-08T14:46:09.549Z,5.60
2018-06-08T14:48:43.960Z,11.23
2018-06-08T14:51:18.595Z,9.00
2018-06-08T14:53:53.296Z,7.17
2018-06-08T14:56:28.717Z,8.00
2018-06-08T14:59:03.818Z,9.73
2018-06-08T15:01:38.467Z,11.63
2018-06-08T15:04:13.177Z,8.17
2018-06-08T15:06:47.909Z,9.90
2018-06-08T15:09:22.574Z,10.00
2018-06-08T15:11:57.205Z,7.20
2018-06-08T15:14:32.422Z,6.37
2018-06-08T15:17:06.520Z,5.90
2018-06-08T15:19:41.280Z,9.40
2018-06-08T15:22:15.987Z,11.93
2018-06-08T15:24:50.621Z,6.30
2018-06-08T15:27:25.293Z,8.33
2018-06-08T15:30:00.038Z,6.30
2018-06-08T15:32:34.835Z,7.43
2018-06-08T15:35:09.613Z,8.30
2018-06-08T15:37:44.217Z,7.23
2018-06-08T15:40:19.492Z,9.23
2018-06-08T15:42:54.468Z,20.40
2018-06-08T15:45:29.261Z,9.13
2018-06-08T15:48:03.746Z,13.23
2018-06-08T15:50:38.407Z,13.07
2018-06-08T15:53:13.442Z,14.03
2018-06-08T15:55:47.708Z,5.90
2018-06-08T15:58:22.666Z,10.53
2018-06-08T16:00:57.523Z,7.80
2018-06-08T16:03:32.497Z,7.97
2018-06-08T16:06:06.919Z,5.33
2018-06-08T16:08:42.022Z,4.53
2018-06-08T16:11:16.423Z,5.67
2018-06-08T16:13:50.722Z,6.17
2018-06-08T16:16:25.381Z,7.10
2018-06-08T16:19:00.053Z,7.67
2018-06-08T16:21:35.126Z,7.00
2018-06-08T16:24:09.555Z,7.80
2018-06-08T16:26:44.366Z,6.53
2018-06-08T16:29:19.462Z,9.73
2018-06-08T16:31:53.999Z,7.87
2018-06-08T16:34:28.631Z,13.50
2018-06-08T16:37:03.681Z,7.53
2018-06-08T16:39:39.688Z,11.80
2018-06-08T16:42:14.409Z,9.07
2018-06-08T16:44:49.531Z,7.50
2018-06-08T16:47:24.577Z,7.40
2018-06-08T16:49:59.446Z,4.17
2018-06-08T16:52:34.001Z,5.27
2018-06-08T16:55:08.717Z,6.03
2018-06-08T16:57:43.857Z,4.80
2018-06-08T17:00:18.243Z,5.47
2018-06-08T17:02:53.012Z,6.20
2018-06-08T17:05:27.616Z,5.10
2018-06-08T17:08:02.464Z,4.10
2018-06-08T17:10:36.854Z,4.57
2018-06-08T17:13:11.283Z,4.93
2018-06-08T17:15:45.999Z,7.10
2018-06-08T17:18:20.998Z,8.10
2018-06-08T17:20:55.417Z,10.40
2018-06-08T17:23:30.500Z,4.47
2018-06-08T17:26:05.249Z,5.00
2018-06-08T17:28:39.758Z,7.63
2018-06-08T17:31:14.401Z,4.83
2018-06-08T17:33:49.099Z,6.80
2018-06-08T17:36:23.813Z,6.87
2018-06-08T17:38:58.810Z,5.13
2018-06-08T17:41:33.500Z,7.13
2018-06-08T17:44:08.247Z,5.03
2018-06-08T17:46:42.793Z,5.70
2018-06-08T17:49:17.850Z,5.20
2018-06-08T17:51:52.178Z,7.77
2018-06-08T17:54:26.805Z,9.43
2018-06-08T17:57:01.368Z,4.27
2018-06-08T17:59:36.112Z,6.37
2018-06-08T18:02:10.577Z,5.73
2018-06-08T18:04:47.093Z,5.80
2018-06-08T18:07:21.934Z,6.60
2018-06-08T18:09:57.021Z,7.83
2018-06-08T18:12:32.087Z,5.63
2018-06-08T18:15:07.104Z,8.60
2018-06-08T18:17:41.710Z,4.80
2018-06-08T18:20:16.473Z,5.00
2018-06-08T18:22:51.093Z,7.57
2018-06-08T18:25:25.853Z,4.43
2018-06-08T18:28:00.726Z,6.07
2018-06-08T18:30:35.116Z,4.30
2018-06-08T18:33:09.845Z,3.97
2018-06-08T18:35:44.706Z,3.83
2018-06-08T18:38:19.280Z,7.73
2018-06-08T18:40:53.926Z,5.40
2018-06-08T18:43:28.493Z,7.03
2018-06-08T18:46:03.905Z,5.13
2018-06-08T18:48:38.645Z,3.97
2018-06-08T18:51:13.352Z,4.27
2018-06-08T18:53:47.938Z,7.53
2018-06-08T18:56:22.955Z,9.23
2018-06-08T18:58:57.240Z,5.90
2018-06-08T19:01:32.234Z,7.23
2018-06-08T19:04:06.881Z,4.73
2018-06-08T19:06:41.558Z,4.53
2018-06-08T19:09:16.775Z,4.00
2018-06-08T19:11:51.317Z,9.40
2018-06-08T19:14:26.052Z,4.73
2018-06-08T19:17:01.193Z,3.67
2018-06-08T19:19:36.953Z,3.73
2018-06-08T19:22:11.791Z,5.47
2018-06-08T19:24:46.375Z,4.27
2018-06-08T19:27:20.982Z,3.93
2018-06-08T19:29:55.709Z,8.83
2018-06-08T19:32:30.589Z,4.70
2018-06-08T19:35:05.037Z,5.50
2018-06-08T19:37:39.524Z,6.43
2018-06-08T19:40:14.181Z,4.23
2018-06-08T19:42:49.055Z,4.20
2018-06-08T19:45:24.728Z,4.40
2018-06-08T19:47:59.899Z,3.80
2018-06-08T19:50:34.079Z,3.20
2018-06-08T19:53:08.908Z,6.87
2018-06-08T19:55:43.486Z,5.50
2018-06-08T19:58:19.359Z,7.50
2018-06-08T20:00:54.669Z,3.50
2018-06-08T20:03:29.874Z,4.60
2018-06-08T20:06:04.332Z,5.70
2018-06-08T20:08:40.029Z,5.50
2018-06-08T20:11:14.676Z,5.20
2018-06-08T20:13:49.373Z,10.67
2018-06-08T20:16:24.199Z,7.33
2018-06-08T20:18:58.784Z,6.17
2018-06-08T20:21:33.475Z,5.10
2018-06-08T20:24:08.223Z,7.63
2018-06-08T20:26:42.855Z,4.27
2018-06-08T20:29:17.705Z,4.60
2018-06-08T20:31:52.100Z,9.07
2018-06-08T20:34:27.553Z,4.13
2018-06-08T20:37:02.465Z,6.20
2018-06-08T20:39:37.064Z,8.40
2018-06-08T20:42:11.812Z,6.50
2018-06-08T20:44:46.521Z,6.50
2018-06-08T20:47:21.738Z,9.00
2018-06-08T20:49:56.185Z,6.20
2018-06-08T20:52:30.571Z,5.63
2018-06-08T20:55:05.350Z,7.73
2018-06-08T20:57:57.638Z,8.60
2018-06-08T21:00:31.964Z,6.80
2018-06-08T21:03:06.607Z,8.43
2018-06-08T21:05:41.428Z,9.53
2018-06-08T21:08:16.096Z,6.27
2018-06-08T21:10:50.673Z,6.27
2018-06-08T21:13:25.324Z,8.50
2018-06-08T21:15:59.934Z,12.73
2018-06-08T21:18:34.841Z,5.83
2018-06-08T21:21:09.042Z,7.70
2018-06-08T21:23:43.802Z,5.50
2018-06-08T21:26:18.666Z,5.33
2018-06-08T21:28:53.521Z,6.07
2018-06-08T21:31:28.302Z,5.80
2018-06-08T21:34:03.177Z,10.03
2018-06-08T21:36:37.946Z,7.33
2018-06-08T21:39:12.732Z,9.13
2018-06-08T21:41:48.482Z,9.00
2018-06-08T21:44:23.313Z,7.30
2018-06-08T21:46:57.860Z,7.93
2018-06-08T21:49:32.648Z,6.87
2018-06-08T21:52:07.394Z,8.10
2018-06-08T21:54:42.938Z,5.73
2018-06-08T21:57:17.799Z,7.03
2018-06-08T21:59:53.586Z,8.70
2018-06-08T22:02:28.301Z,5.63
2018-06-08T22:05:03.139Z,7.80
2018-06-08T22:07:38.445Z,9.47
2018-06-08T22:10:12.823Z,5.80
2018-06-08T22:12:47.366Z,7.90
2018-06-08T22:15:22.452Z,6.90
2018-06-08T22:17:57.775Z,4.73
2018-06-08T22:20:32.183Z,7.17
2018-06-08T22:23:06.828Z,7.37
2018-06-08T22:25:42.244Z,9.30
2018-06-08T22:28:17.129Z,5.80
2018-06-08T22:30:51.765Z,10.57
2018-06-08T22:33:26.563Z,6.90
2018-06-08T22:36:01.139Z,9.37
2018-06-08T22:38:35.854Z,9.27
2018-06-08T22:41:10.541Z,5.07
2018-06-08T22:43:45.549Z,6.50
2018-06-08T22:46:19.898Z,5.30
2018-06-08T22:48:54.842Z,7.60
2018-06-08T22:51:29.304Z,6.30
2018-06-08T22:54:04.134Z,5.87
2018-06-08T22:56:38.812Z,5.73
2018-06-08T22:59:13.545Z,5.63
2018-06-08T23:01:48.190Z,4.50
2018-06-08T23:04:22.988Z,6.93
2018-06-08T23:06:57.722Z,4.70
2018-06-08T23:09:32.555Z,8.40
2018-06-08T23:12:07.626Z,7.27
2018-06-08T23:14:42.197Z,5.03
2018-06-08T23:17:16.802Z,6.00
2018-06-08T23:19:51.618Z,6.83
2018-06-08T23:22:26.352Z,5.47
2018-06-08T23:25:01.089Z,4.60
2018-06-08T23:27:35.965Z,9.13
2018-06-08T23:30:10.639Z,7.17
2018-06-08T23:32:45.415Z,4.90
2018-06-08T23:35:20.252Z,4.23
2018-06-08T23:37:54.922Z,5.10
2018-06-08T23:40:29.772Z,7.67
2018-06-08T23:43:04.465Z,4.50
2018-06-08T23:45:39.433Z,9.47
2018-06-08T23:48:14.195Z,5.93
2018-06-08T23:50:48.976Z,13.23
2018-06-08T23:53:23.922Z,6.10
2018-06-08T23:55:58.507Z,8.17
2018-06-08T23:58:32.997Z,5.70
